Jacksonville, IL

3:13 PM CDT on August 27, 2014 (GMT -0500)
Jacksonville Municipal | Change Station
CLOSE
Current Station
Airport
Location: Jacksonville,
Elevation: 623 ft
Nearby Weather Stations

Elev 623 ft 39.77 °N, 90.24 °W | Updated 18 minutes ago

Light Thunderstorms and Rain
Light Thunderstorm Rain
74 °F
Feels Like 74 °F
N
5
Wind Variable Wind from North
Gusts 20 mph

Today
High -- | Low -- °F
--% Chance of Precip.
Yesterday
High -- | Low -- °F
Precip. -- in
6:24 AM 7:39 PM
Waxing Crescent, 5% visible
Pressure 30.11 in
Visibility 4.0 miles
Clouds Scattered Clouds 1200 ft
Mostly Cloudy 3700 ft
Mostly Cloudy 5000 ft
Dew Point 69 °F
Humidity 85%
Rainfall 0.08 in
Snow Depth Not available.
UV 4 out of 12
Pollen 9.30 out of 12
Ozone Good
PM2.5 Good
Flu Activity Not available.
METAR KIJX 271955Z AUTO 01004G17KT 4SM -TSRA SCT012 BKN037 BKN050 23/21 A3011 RMK AO2 LTG DSNT ALQS P0007 T02310205

More Conditions Fewer Conditions

Pressure 30.11 in
Visibility 4.0 miles
Clouds Scattered Clouds 1200 ft
Mostly Cloudy 3700 ft
Mostly Cloudy 5000 ft
Dew Point 69 °F
Humidity 85%
Rainfall 0.08 in
Snow Depth Not available.
UV 4 out of 12
Pollen 9.30 out of 12
Ozone Good
PM2.5 Good
Flu Activity Not available.
METAR KIJX 271955Z AUTO 01004G17KT 4SM -TSRA SCT012 BKN037 BKN050 23/21 A3011 RMK AO2 LTG DSNT ALQS P0007 T02310205

More Conditions Fewer Conditions

10-Day Weather Forecast

Almanac

Astronomy

Aug. 27, 2014 Rise Set
Actual Time 6:24 AM CDT 7:39 PM CDT
Civil Twilight 5:56 AM CDT 8:07 PM CDT
Nautical Twilight 5:22 AM CDT 8:41 PM CDT
Astronomical Twilight 4:47 AM CDT 9:16 PM CDT
Moon 8:20 AM CDT 8:32 PM CDT
Length of Visible Light 14h 11m
Length of Day
13h 15m
Tomorrow will be 2m 29s shorter.
Waxing Crescent, 5% of the Moon is Illuminated
Today
Waxing Crescent
Sep 2
First Quarter
Sep 8
Full
Sep 15
Last Quarter
Sep 24
New

Today's Extremes

State Highs State Lows

Community

WunderPhotos

Upload Photos

1,747,775 photos uploaded!

Nearby

Air Quality

  Air Quality AQ Index Pollutant
Yesterday Moderate
PM2.5
Yesterday Good
OZONE
Current Good
PM2.5
Current Good
OZONE
Wednesday Moderate
PM2.5
Thursday Moderate
PM2.5

Snow Depth

Station Depth Elevation
No new snow has been reported.

Earthquake Activity

City Distance Mag. Time & Date
No recent earthquake activity has been reported nearby.
Minimum magnitude displayed is 2.5.

Coastal Water Temperatures

Place Temperature
No Stations Reporting

Nearby Weather Stations